createdAt,value
2023-03-05T00:06:48.184Z,87.8
2023-03-05T00:26:48.160Z,87.5
2023-03-05T00:46:48.200Z,87.5
2023-03-05T01:06:48.106Z,88.4
2023-03-05T01:26:48.063Z,89.4
2023-03-05T01:46:48.015Z,89.1
2023-03-05T02:06:48.102Z,89.4
2023-03-05T02:26:48.082Z,88.0
2023-03-05T02:46:47.998Z,89.2
2023-03-05T03:06:48.009Z,88.9
2023-03-05T03:26:47.988Z,89.3
2023-03-05T03:46:48.084Z,89.5
2023-03-05T04:06:48.011Z,89.7
2023-03-05T04:26:48.077Z,89.4
2023-03-05T04:46:47.976Z,90.0
2023-03-05T05:06:48.000Z,90.1
2023-03-05T05:26:47.953Z,90.0
2023-03-05T05:46:48.014Z,90.5
2023-03-05T06:06:47.950Z,90.5
2023-03-05T06:26:47.958Z,90.3
2023-03-05T06:46:48.101Z,90.4
2023-03-05T07:06:47.952Z,90.8
2023-03-05T07:26:47.946Z,91.2
2023-03-05T07:46:48.040Z,90.3
2023-03-05T08:06:48.055Z,91.7
2023-03-05T08:26:47.929Z,91.6
2023-03-05T08:46:47.952Z,91.5
2023-03-05T09:06:47.896Z,90.8
2023-03-05T09:26:47.894Z,91.2
2023-03-05T09:46:47.946Z,90.7
2023-03-05T10:06:47.953Z,91.0
2023-03-05T10:46:47.877Z,90.2
2023-03-05T11:06:47.866Z,89.4
2023-03-05T11:26:47.837Z,88.4
2023-03-05T11:46:47.851Z,88.6
2023-03-05T12:06:47.884Z,87.7
2023-03-05T12:26:47.809Z,88.2
2023-03-05T12:46:47.824Z,87.4
2023-03-05T13:06:47.878Z,85.5
2023-03-05T13:26:47.977Z,85.6
2023-03-05T13:46:47.773Z,86.7
2023-03-05T14:06:47.754Z,85.5
2023-03-05T14:26:47.829Z,84.7
2023-03-05T14:46:47.867Z,85.0
2023-03-05T15:06:47.748Z,85.8
2023-03-05T15:26:47.838Z,85.1
2023-03-05T15:46:47.738Z,84.8
2023-03-05T16:06:47.690Z,82.8
2023-03-05T16:26:47.802Z,84.6
2023-03-05T16:46:47.736Z,87.6
2023-03-05T17:06:47.865Z,82.7
2023-03-05T17:26:47.674Z,81.6
2023-03-05T17:46:47.731Z,82.0
2023-03-05T18:06:47.659Z,86.3
2023-03-05T18:26:47.647Z,83.6
2023-03-05T18:46:47.639Z,86.1
2023-03-05T19:06:47.634Z,87.4
2023-03-05T19:26:47.695Z,90.1
2023-03-05T19:46:47.778Z,88.8
2023-03-05T20:06:47.713Z,88.5
2023-03-05T20:26:47.588Z,89.8
2023-03-05T20:46:47.623Z,90.0
2023-03-05T21:06:47.667Z,88.3
2023-03-05T21:26:47.670Z,88.4
2023-03-05T21:46:47.569Z,88.8
2023-03-05T22:06:47.539Z,89.6
2023-03-05T22:26:47.601Z,88.4
2023-03-05T22:46:47.664Z,87.2
2023-03-05T23:06:47.608Z,89.1
2023-03-05T23:26:47.684Z,87.8
2023-03-05T23:46:47.595Z,89.5
